createdAt,value
2022-08-01T00:01:34.206Z,100605.00
2022-08-01T00:04:02.745Z,100605.13
2022-08-01T00:06:31.117Z,100608.78
2022-08-01T00:08:59.643Z,100605.38
2022-08-01T00:11:28.103Z,100605.63
2022-08-01T00:13:57.869Z,100608.44
2022-08-01T00:16:26.174Z,100608.53
2022-08-01T00:18:54.896Z,100604.41
2022-08-01T00:21:23.508Z,100614.41
2022-08-01T00:23:51.814Z,100610.28
2022-08-01T00:26:21.523Z,100610.47
2022-08-01T00:28:49.848Z,100612.41
2022-08-01T00:31:19.497Z,100605.63
2022-08-01T00:33:49.776Z,100609.53
2022-08-01T00:36:18.199Z,100611.56
2022-08-01T00:38:46.903Z,100611.13
2022-08-01T00:41:15.268Z,100610.47
2022-08-01T00:43:43.669Z,100611.84
2022-08-01T00:46:12.137Z,100617.53
2022-08-01T00:48:41.891Z,100615.97
2022-08-01T00:51:10.907Z,100614.50
2022-08-01T00:53:51.938Z,100613.75
2022-08-01T00:56:22.928Z,100614.97
2022-08-01T00:58:52.801Z,100621.44
2022-08-01T01:01:22.839Z,100618.00
2022-08-01T01:03:59.030Z,100617.41
2022-08-01T01:06:43.860Z,100616.91
2022-08-01T01:09:25.876Z,100619.81
2022-08-01T01:12:14.182Z,100617.50
2022-08-01T01:14:52.971Z,100613.47
2022-08-01T01:17:49.519Z,100617.44
2022-08-01T01:20:22.529Z,100622.28
2022-08-01T01:23:12.380Z,100619.00
2022-08-01T01:26:03.197Z,100621.06
2022-08-01T01:28:43.458Z,100630.06
2022-08-01T01:31:15.470Z,100624.91
2022-08-01T01:33:45.347Z,100627.81
2022-08-01T01:36:18.765Z,100629.78
2022-08-01T01:38:49.071Z,100632.69
2022-08-01T01:41:20.020Z,100630.25
2022-08-01T01:43:50.156Z,100633.16
2022-08-01T01:46:27.939Z,100637.00
2022-08-01T01:48:58.737Z,100638.09
2022-08-01T01:51:29.378Z,100641.97
2022-08-01T01:53:59.862Z,100643.28
2022-08-01T01:56:30.056Z,100646.53
2022-08-01T01:59:03.003Z,100646.09
2022-08-01T02:02:06.033Z,100637.81
2022-08-01T02:04:26.482Z,100649.78
2022-08-01T02:06:56.704Z,100649.16
2022-08-01T02:09:28.539Z,100647.66
2022-08-01T02:12:08.868Z,100648.72
2022-08-01T02:14:40.923Z,100646.41
2022-08-01T02:17:13.037Z,100644.81
2022-08-01T02:19:41.819Z,100655.63
2022-08-01T02:22:18.769Z,100653.88
2022-08-01T02:24:54.337Z,100656.47
2022-08-01T02:27:30.626Z,100659.97
2022-08-01T02:30:03.323Z,100659.00
2022-08-01T02:32:38.487Z,100659.00
2022-08-01T02:35:11.631Z,100660.97
2022-08-01T02:37:45.150Z,100660.97
2022-08-01T02:40:18.258Z,100652.19
2022-08-01T02:42:51.745Z,100654.09
2022-08-01T02:45:22.636Z,100649.63
2022-08-01T02:47:53.752Z,100651.44
2022-08-01T02:50:24.603Z,100656.91
2022-08-01T02:52:54.741Z,100650.91
2022-08-01T02:55:23.648Z,100648.38
2022-08-01T02:57:58.431Z,100655.00
2022-08-01T03:00:31.779Z,100659.69
2022-08-01T03:03:03.508Z,100659.28
2022-08-01T03:05:33.935Z,100657.78
2022-08-01T03:08:03.999Z,100655.47
2022-08-01T03:10:34.686Z,100653.00
2022-08-01T03:13:05.068Z,100658.66
2022-08-01T03:15:38.324Z,100661.53
2022-08-01T03:18:11.228Z,100667.09
2022-08-01T03:20:40.084Z,100661.13
2022-08-01T03:23:11.987Z,100670.19
2022-08-01T03:25:43.611Z,100669.44
2022-08-01T03:28:16.094Z,100665.06
2022-08-01T03:30:45.891Z,100662.53
2022-08-01T03:33:15.735Z,100666.75
2022-08-01T03:35:50.325Z,100670.19
2022-08-01T03:38:23.536Z,100663.88
2022-08-01T03:40:57.645Z,100670.94
2022-08-01T03:43:36.333Z,100669.97
2022-08-01T03:46:09.642Z,100670.59
2022-08-01T03:48:44.888Z,100669.53
2022-08-01T03:51:14.627Z,100665.91
2022-08-01T03:53:45.872Z,100664.75
2022-08-01T03:56:20.013Z,100666.34
2022-08-01T03:58:50.264Z,100663.34
2022-08-01T04:01:20.355Z,100657.78
2022-08-01T04:03:50.803Z,100651.38
2022-08-01T04:06:19.414Z,100653.94
2022-08-01T04:08:56.647Z,100661.75
2022-08-01T04:11:26.748Z,100662.47
2022-08-01T04:13:56.020Z,100664.06
2022-08-01T04:16:26.179Z,100663.97
2022-08-01T04:18:55.847Z,100669.09
2022-08-01T04:21:29.682Z,100666.22
2022-08-01T04:24:02.095Z,100669.59
2022-08-01T04:26:32.279Z,100665.88
2022-08-01T04:29:03.478Z,100664.78
2022-08-01T04:31:33.420Z,100676.97
2022-08-01T04:34:06.435Z,100682.09
2022-08-01T04:36:37.804Z,100681.88
2022-08-01T04:39:08.078Z,100680.91
2022-08-01T04:41:37.829Z,100686.13
2022-08-01T04:44:07.775Z,100685.19
2022-08-01T04:46:37.862Z,100692.13
2022-08-01T04:49:12.787Z,100690.19
2022-08-01T04:51:53.349Z,100689.22
2022-08-01T04:54:22.432Z,100693.38
2022-08-01T04:56:51.558Z,100697.75
2022-08-01T04:59:37.340Z,100696.84
2022-08-01T05:02:05.940Z,100701.22
2022-08-01T05:04:37.464Z,100701.97
2022-08-01T05:07:06.199Z,100699.16
2022-08-01T05:09:34.989Z,100700.88
2022-08-01T05:12:04.658Z,100699.16
2022-08-01T05:14:33.763Z,100694.88
2022-08-01T05:17:04.130Z,100696.84
2022-08-01T05:19:33.824Z,100704.06
2022-08-01T05:22:06.441Z,100703.22
2022-08-01T05:24:35.987Z,100703.22
2022-08-01T05:27:07.468Z,100703.22
2022-08-01T05:29:39.252Z,100708.44
2022-08-01T05:32:10.320Z,100705.75
2022-08-01T05:34:38.653Z,100717.25
2022-08-01T05:37:09.121Z,100709.97
2022-08-01T05:39:37.483Z,100709.84
2022-08-01T05:42:06.414Z,100717.00
2022-08-01T05:44:34.996Z,100718.72
2022-08-01T05:47:03.702Z,100712.41
2022-08-01T05:49:32.200Z,100709.63
2022-08-01T05:52:02.098Z,100715.59
2022-08-01T05:54:31.929Z,100708.31
2022-08-01T05:57:02.731Z,100710.03
2022-08-01T05:59:32.144Z,100700.09
2022-08-01T06:02:00.807Z,100716.88
2022-08-01T06:04:29.358Z,100714.19
2022-08-01T06:06:57.887Z,100722.00
2022-08-01T06:09:26.168Z,100721.88
2022-08-01T06:11:55.860Z,100723.47
2022-08-01T06:14:24.181Z,100718.88
2022-08-01T06:16:52.542Z,100723.25
2022-08-01T06:19:20.800Z,100720.47
2022-08-01T06:21:49.135Z,100730.09
2022-08-01T06:24:17.577Z,100728.13
2022-08-01T06:26:45.861Z,100724.28
2022-08-01T06:29:15.537Z,100723.84
2022-08-01T06:31:43.837Z,100732.34
2022-08-01T06:34:12.131Z,100732.13
2022-08-01T06:36:40.499Z,100726.34
2022-08-01T06:39:08.889Z,100734.84
2022-08-01T06:41:37.254Z,100729.06
2022-08-01T06:44:06.787Z,100733.88
2022-08-01T06:46:37.335Z,100729.66
2022-08-01T06:49:05.854Z,100737.69
2022-08-01T06:51:34.287Z,100735.28
2022-08-01T06:54:02.645Z,100743.38
2022-08-01T06:56:31.045Z,100747.78
2022-08-01T06:59:01.853Z,100751.22
2022-08-01T07:01:31.223Z,100743.22
2022-08-01T07:04:05.235Z,100748.34
2022-08-01T07:06:33.612Z,100745.44
2022-08-01T07:09:09.437Z,100741.41
2022-08-01T07:11:40.572Z,100742.63
2022-08-01T07:14:08.980Z,100741.25
2022-08-01T07:16:37.307Z,100747.91
2022-08-01T07:19:07.140Z,100736.75
2022-08-01T07:21:40.589Z,100741.34
2022-08-01T07:24:14.489Z,100739.41
2022-08-01T07:26:52.500Z,100728.09
2022-08-01T07:29:25.294Z,100721.72
2022-08-01T07:31:54.117Z,100720.84
2022-08-01T07:34:24.672Z,100721.47
2022-08-01T07:36:53.968Z,100717.78
2022-08-01T07:39:22.815Z,100724.56
2022-08-01T07:42:05.890Z,100724.56
2022-08-01T07:44:36.188Z,100719.47
2022-08-01T07:47:05.480Z,100717.25
2022-08-01T07:49:40.055Z,100724.59
2022-08-01T07:52:09.669Z,100728.53
2022-08-01T07:54:37.967Z,100732.00
2022-08-01T07:57:07.359Z,100724.75
2022-08-01T07:59:36.276Z,100725.50
2022-08-01T08:02:05.478Z,100719.13
2022-08-01T08:04:35.565Z,100726.22
2022-08-01T08:07:04.434Z,100722.97
2022-08-01T08:09:37.465Z,100730.25
2022-08-01T08:12:08.856Z,100726.00
2022-08-01T08:14:37.361Z,100726.06
2022-08-01T08:17:06.491Z,100723.81
2022-08-01T08:19:39.041Z,100726.69
2022-08-01T08:22:09.499Z,100729.44
2022-08-01T08:24:46.656Z,100726.19
2022-08-01T08:27:15.535Z,100723.88
2022-08-01T08:29:44.135Z,100723.03
2022-08-01T08:32:13.619Z,100727.66
2022-08-01T08:34:43.617Z,100723.69
2022-08-01T08:37:12.400Z,100722.47
2022-08-01T08:39:42.131Z,100726.78
2022-08-01T08:42:12.265Z,100723.75
2022-08-01T08:44:43.854Z,100713.56
2022-08-01T08:47:19.848Z,100716.84
2022-08-01T08:49:53.337Z,100719.97
2022-08-01T08:52:22.927Z,100720.69
2022-08-01T08:54:53.625Z,100722.97
2022-08-01T08:57:23.259Z,100720.53
2022-08-01T08:59:55.044Z,100717.41
2022-08-01T09:02:23.814Z,100723.94
2022-08-01T09:04:53.677Z,100721.25
2022-08-01T09:07:23.760Z,100715.44
2022-08-01T09:09:52.723Z,100716.56
2022-08-01T09:12:22.173Z,100711.03
2022-08-01T09:14:54.299Z,100712.56
2022-08-01T09:17:23.443Z,100716.75
2022-08-01T09:19:55.812Z,100714.34
2022-08-01T09:22:27.784Z,100724.13
2022-08-01T09:25:07.069Z,100732.50
2022-08-01T09:27:36.516Z,100738.19
2022-08-01T09:30:19.253Z,100737.16
2022-08-01T09:32:57.913Z,100738.59
2022-08-01T09:35:31.769Z,100740.28
2022-08-01T09:38:24.302Z,100736.84
2022-08-01T09:40:54.978Z,100741.06
2022-08-01T09:43:27.180Z,100742.56
2022-08-01T09:45:57.975Z,100735.47
2022-08-01T09:48:29.796Z,100732.44
2022-08-01T09:51:07.382Z,100730.84
2022-08-01T09:53:51.408Z,100735.75
2022-08-01T09:56:22.817Z,100736.78
2022-08-01T09:58:59.345Z,100736.47
2022-08-01T10:01:37.158Z,100729.91
2022-08-01T10:04:12.844Z,100726.25
2022-08-01T10:06:45.074Z,100727.19
2022-08-01T10:09:16.110Z,100717.22
2022-08-01T10:11:45.476Z,100719.41
2022-08-01T10:14:18.284Z,100718.31
2022-08-01T10:16:53.801Z,100715.16
2022-08-01T10:19:33.886Z,100722.78
2022-08-01T10:22:07.110Z,100717.72
2022-08-01T10:24:40.397Z,100715.03
2022-08-01T10:27:12.431Z,100717.44
2022-08-01T10:30:05.188Z,100718.81
2022-08-01T10:32:36.838Z,100708.72
2022-08-01T10:35:14.950Z,100707.69
2022-08-01T10:37:52.018Z,100699.31
2022-08-01T10:40:31.238Z,100707.34
2022-08-01T10:43:00.775Z,100707.22
2022-08-01T10:45:30.268Z,100702.56
2022-08-01T10:48:08.222Z,100699.06
2022-08-01T10:50:44.550Z,100705.81
2022-08-01T10:53:31.296Z,100689.22
2022-08-01T10:56:12.893Z,100684.16
2022-08-01T10:58:46.667Z,100691.38
2022-08-01T11:01:28.860Z,100686.81
2022-08-01T11:04:16.861Z,100684.09
2022-08-01T11:07:05.006Z,100682.03
2022-08-01T11:09:44.341Z,100676.25
2022-08-01T11:12:24.933Z,100677.41
2022-08-01T11:15:29.594Z,100674.13
2022-08-01T11:18:05.459Z,100673.00
2022-08-01T11:20:41.981Z,100676.06
2022-08-01T11:23:23.450Z,100681.13
2022-08-01T11:26:12.461Z,100674.69
2022-08-01T11:28:50.381Z,100670.69
2022-08-01T11:31:37.376Z,100660.78
2022-08-01T11:34:07.253Z,100648.72
2022-08-01T11:36:58.261Z,100656.75
2022-08-01T11:39:24.573Z,100656.81
2022-08-01T11:41:55.627Z,100652.53
2022-08-01T11:44:30.336Z,100646.97
2022-08-01T11:47:09.238Z,100651.13
2022-08-01T11:49:55.837Z,100650.22
2022-08-01T11:52:30.958Z,100643.50
2022-08-01T11:55:10.351Z,100643.81
2022-08-01T11:57:41.192Z,100641.34
2022-08-01T12:00:16.599Z,100638.25
2022-08-01T12:02:46.825Z,100643.13
2022-08-01T12:05:21.419Z,100628.72
2022-08-01T12:07:56.042Z,100632.91
2022-08-01T12:10:26.572Z,100632.59
2022-08-01T12:13:01.886Z,100633.84
2022-08-01T12:15:34.510Z,100633.72
2022-08-01T12:18:05.594Z,100629.28
2022-08-01T12:20:38.226Z,100627.97
2022-08-01T12:23:13.260Z,100635.56
2022-08-01T12:25:44.702Z,100640.06
2022-08-01T12:28:15.134Z,100633.94
2022-08-01T12:30:44.253Z,100627.97
2022-08-01T12:33:18.726Z,100627.13
2022-08-01T12:35:47.621Z,100616.22
2022-08-01T12:38:18.930Z,100615.50
2022-08-01T12:40:53.060Z,100622.06
2022-08-01T12:43:27.816Z,100622.22
2022-08-01T12:45:59.307Z,100624.63
2022-08-01T12:48:28.949Z,100618.16
2022-08-01T12:51:01.398Z,100623.78
2022-08-01T12:53:40.821Z,100618.94
2022-08-01T12:56:12.384Z,100622.09
2022-08-01T12:58:42.406Z,100624.84
2022-08-01T13:01:14.163Z,100625.13
2022-08-01T13:03:43.269Z,100615.38
2022-08-01T13:06:17.237Z,100614.41
2022-08-01T13:08:47.708Z,100605.25
2022-08-01T13:11:19.009Z,100613.09
2022-08-01T13:13:51.196Z,100607.00
2022-08-01T13:16:31.012Z,100615.28
2022-08-01T13:19:10.065Z,100609.78
2022-08-01T13:21:53.721Z,100610.22
2022-08-01T13:24:27.858Z,100614.84
2022-08-01T13:26:59.786Z,100611.41
2022-08-01T13:29:35.398Z,100611.88
2022-08-01T13:32:27.838Z,100611.25
2022-08-01T13:35:04.950Z,100603.00
2022-08-01T13:37:33.284Z,100613.00
2022-08-01T13:40:01.743Z,100604.38
2022-08-01T13:42:31.197Z,100597.94
2022-08-01T13:45:00.977Z,100599.69
2022-08-01T13:47:32.532Z,100596.69
2022-08-01T13:50:03.868Z,100604.84
2022-08-01T13:52:33.380Z,100600.34
2022-08-01T13:55:02.550Z,100598.19
2022-08-01T13:57:36.204Z,100596.63
2022-08-01T14:00:10.662Z,100597.69
2022-08-01T14:02:42.005Z,100598.16
2022-08-01T14:05:10.912Z,100601.69
2022-08-01T14:07:39.302Z,100593.25
2022-08-01T14:10:19.453Z,100586.34
2022-08-01T14:12:49.557Z,100582.19
2022-08-01T14:15:39.277Z,100590.19
2022-08-01T14:18:10.656Z,100582.59
2022-08-01T14:20:40.955Z,100582.91
2022-08-01T14:23:09.656Z,100580.19
2022-08-01T14:26:01.668Z,100583.25
2022-08-01T14:28:29.013Z,100584.31
2022-08-01T14:30:59.654Z,100589.75
2022-08-01T14:33:28.656Z,100598.22
2022-08-01T14:36:05.510Z,100585.97
2022-08-01T14:38:36.157Z,100583.25
2022-08-01T14:41:04.855Z,100583.72
2022-08-01T14:43:34.198Z,100586.16
2022-08-01T14:46:05.124Z,100582.97
2022-08-01T14:48:33.741Z,100580.44
2022-08-01T14:51:03.748Z,100568.16
2022-08-01T14:53:35.648Z,100576.22
2022-08-01T14:56:05.387Z,100575.47
2022-08-01T14:58:33.978Z,100562.09
2022-08-01T15:01:05.383Z,100561.13
2022-08-01T15:03:33.963Z,100562.28
2022-08-01T15:06:03.290Z,100557.44
2022-08-01T15:08:33.242Z,100563.28
2022-08-01T15:11:02.998Z,100556.38
2022-08-01T15:13:31.325Z,100564.34
2022-08-01T15:16:00.936Z,100569.09
2022-08-01T15:18:30.803Z,100571.94
2022-08-01T15:21:02.922Z,100573.81
2022-08-01T15:23:31.286Z,100573.22
2022-08-01T15:25:59.713Z,100567.22
2022-08-01T15:28:28.077Z,100574.31
2022-08-01T15:30:56.587Z,100569.34
2022-08-01T15:33:25.624Z,100565.25
2022-08-01T15:35:55.608Z,100566.41
2022-08-01T15:38:25.345Z,100570.84
2022-08-01T15:40:53.775Z,100569.84
2022-08-01T15:43:22.309Z,100569.81
2022-08-01T15:45:50.993Z,100566.94
2022-08-01T15:48:19.595Z,100557.44
2022-08-01T15:50:49.771Z,100568.78
2022-08-01T15:53:19.621Z,100570.59
2022-08-01T15:55:52.294Z,100566.47
2022-08-01T15:58:21.540Z,100569.44
2022-08-01T16:00:50.081Z,100566.41
2022-08-01T16:03:18.706Z,100564.00
2022-08-01T16:05:47.185Z,100568.75
2022-08-01T16:08:15.980Z,100558.78
2022-08-01T16:10:45.991Z,100563.75
2022-08-01T16:13:14.669Z,100578.19
2022-08-01T16:15:43.263Z,100571.59
2022-08-01T16:18:14.522Z,100578.50
2022-08-01T16:20:45.945Z,100586.03
2022-08-01T16:23:16.157Z,100585.16
2022-08-01T16:25:46.312Z,100592.28
2022-08-01T16:28:14.984Z,100587.28
2022-08-01T16:30:54.024Z,100589.06
2022-08-01T16:33:51.529Z,100588.91
2022-08-01T16:36:22.010Z,100588.50
2022-08-01T16:38:53.177Z,100580.19
2022-08-01T16:41:22.934Z,100580.63
2022-08-01T16:43:54.027Z,100577.94
2022-08-01T16:46:26.846Z,100577.09
2022-08-01T16:48:56.005Z,100578.94
2022-08-01T16:51:24.565Z,100578.94
2022-08-01T16:53:52.993Z,100576.41
2022-08-01T16:56:23.042Z,100580.56
2022-08-01T16:58:51.682Z,100583.59
2022-08-01T17:01:57.942Z,100595.84
2022-08-01T17:04:08.864Z,100589.06
2022-08-01T17:06:37.412Z,100585.16
2022-08-01T17:09:06.849Z,100589.16
2022-08-01T17:11:36.596Z,100594.13
2022-08-01T17:14:05.642Z,100598.59
2022-08-01T17:16:34.061Z,100597.53
2022-08-01T17:19:03.699Z,100602.72
2022-08-01T17:21:32.248Z,100607.31
2022-08-01T17:24:00.665Z,100611.63
2022-08-01T17:26:29.086Z,100614.38
2022-08-01T17:28:59.169Z,100615.97
2022-08-01T17:31:27.565Z,100621.09
2022-08-01T17:33:55.943Z,100615.88
2022-08-01T17:36:24.454Z,100620.78
2022-08-01T17:38:52.899Z,100614.13
2022-08-01T17:41:21.445Z,100606.47
2022-08-01T17:43:49.845Z,100606.78
2022-08-01T17:46:19.685Z,100615.69
2022-08-01T17:48:48.274Z,100608.78
2022-08-01T17:51:22.459Z,100614.47
2022-08-01T17:53:57.276Z,100607.38
2022-08-01T17:56:27.046Z,100613.03
2022-08-01T17:58:56.128Z,100616.31
2022-08-01T18:01:26.808Z,100608.53
2022-08-01T18:03:57.619Z,100606.00
2022-08-01T18:06:27.370Z,100606.28
2022-08-01T18:08:59.597Z,100619.16
2022-08-01T18:11:37.057Z,100620.44
2022-08-01T18:14:06.731Z,100620.75
2022-08-01T18:16:36.528Z,100617.34
2022-08-01T18:19:06.936Z,100614.94
2022-08-01T18:21:37.601Z,100627.28
2022-08-01T18:24:09.977Z,100632.94
2022-08-01T18:26:38.361Z,100630.56
2022-08-01T18:29:07.705Z,100626.16
2022-08-01T18:31:37.915Z,100628.16
2022-08-01T18:34:06.547Z,100632.81
2022-08-01T18:36:35.109Z,100626.72
2022-08-01T18:39:10.828Z,100634.78
2022-08-01T18:41:40.033Z,100636.91
2022-08-01T18:44:09.107Z,100634.38
2022-08-01T18:46:40.844Z,100631.81
2022-08-01T18:49:12.900Z,100633.84
2022-08-01T18:51:44.626Z,100639.50
2022-08-01T18:54:14.895Z,100637.22
2022-08-01T18:56:45.456Z,100650.25
2022-08-01T18:59:14.996Z,100656.44
2022-08-01T19:01:45.628Z,100662.09
2022-08-01T19:04:14.314Z,100662.47
2022-08-01T19:06:43.278Z,100664.59
2022-08-01T19:09:20.717Z,100669.91
2022-08-01T19:11:49.601Z,100675.84
2022-08-01T19:14:18.196Z,100675.78
2022-08-01T19:16:48.448Z,100676.59
2022-08-01T19:19:27.463Z,100682.50
2022-08-01T19:21:56.713Z,100682.47
2022-08-01T19:24:25.744Z,100691.19
2022-08-01T19:26:57.342Z,100691.13
2022-08-01T19:29:35.232Z,100698.72
2022-08-01T19:32:10.275Z,100699.50
2022-08-01T19:34:49.465Z,100705.56
2022-08-01T19:37:18.025Z,100706.91
2022-08-01T19:39:46.670Z,100704.72
2022-08-01T19:42:15.841Z,100703.25
2022-08-01T19:44:46.173Z,100705.50
2022-08-01T19:47:18.245Z,100709.66
2022-08-01T19:49:47.135Z,100703.84
2022-08-01T19:52:20.261Z,100712.44
2022-08-01T19:54:51.655Z,100715.59
2022-08-01T19:57:21.326Z,100722.19
2022-08-01T19:59:52.557Z,100715.41
2022-08-01T20:02:22.774Z,100725.63
2022-08-01T20:04:51.293Z,100725.16
2022-08-01T20:07:19.718Z,100729.06
2022-08-01T20:09:50.761Z,100727.63
2022-08-01T20:12:23.753Z,100721.28
2022-08-01T20:14:54.788Z,100723.22
2022-08-01T20:17:25.301Z,100728.81
2022-08-01T20:19:53.989Z,100732.75
2022-08-01T20:22:30.548Z,100726.88
2022-08-01T20:25:00.873Z,100727.03
2022-08-01T20:27:31.919Z,100733.72
2022-08-01T20:30:01.923Z,100733.97
2022-08-01T20:32:40.211Z,100738.75
2022-08-01T20:35:10.193Z,100744.34
2022-08-01T20:38:06.243Z,100742.00
2022-08-01T20:40:30.101Z,100744.09
2022-08-01T20:42:59.410Z,100744.19
2022-08-01T20:45:28.600Z,100744.44
2022-08-01T20:47:59.564Z,100749.09
2022-08-01T20:50:55.020Z,100748.34
2022-08-01T20:53:23.936Z,100744.47
2022-08-01T20:56:01.315Z,100743.47
2022-08-01T20:58:58.935Z,100744.56
2022-08-01T21:01:31.252Z,100749.06
2022-08-01T21:04:15.628Z,100753.59
2022-08-01T21:06:50.994Z,100750.91
2022-08-01T21:09:24.598Z,100756.13
2022-08-01T21:12:03.381Z,100762.38
2022-08-01T21:14:50.343Z,100768.56
2022-08-01T21:17:27.885Z,100772.84
2022-08-01T21:20:08.704Z,100762.00
2022-08-01T21:22:52.688Z,100769.03
2022-08-01T21:25:27.597Z,100764.66
2022-08-01T21:27:56.859Z,100764.66
2022-08-01T21:30:26.323Z,100768.31
2022-08-01T21:32:55.716Z,100770.25
2022-08-01T21:35:28.014Z,100772.94
2022-08-01T21:37:59.310Z,100765.88
2022-08-01T21:40:27.885Z,100775.88
2022-08-01T21:42:56.851Z,100777.69
2022-08-01T21:45:28.138Z,100779.75
2022-08-01T21:47:58.466Z,100782.53
2022-08-01T21:50:31.733Z,100783.59
2022-08-01T21:53:11.888Z,100789.19
2022-08-01T21:55:55.750Z,100786.03
2022-08-01T21:58:34.240Z,100790.03
2022-08-01T22:01:11.541Z,100796.59
2022-08-01T22:03:47.396Z,100791.59
2022-08-01T22:06:20.416Z,100803.25
2022-08-01T22:08:53.070Z,100800.09
2022-08-01T22:11:24.309Z,100808.38
2022-08-01T22:13:56.045Z,100812.97
2022-08-01T22:16:26.858Z,100816.63
2022-08-01T22:18:55.750Z,100810.41
2022-08-01T22:21:28.618Z,100806.88
2022-08-01T22:23:58.845Z,100814.91
2022-08-01T22:26:29.411Z,100816.88
2022-08-01T22:28:58.113Z,100819.78
2022-08-01T22:31:26.990Z,100820.94
2022-08-01T22:33:55.805Z,100824.84
2022-08-01T22:36:25.692Z,100818.88
2022-08-01T22:38:54.098Z,100821.13
2022-08-01T22:41:31.078Z,100816.97
2022-08-01T22:44:27.697Z,100818.28
2022-08-01T22:47:08.024Z,100814.13
2022-08-01T22:49:44.543Z,100814.19
2022-08-01T22:52:20.189Z,100816.38
2022-08-01T22:54:52.961Z,100816.59
2022-08-01T22:57:30.234Z,100822.19
2022-08-01T23:00:03.526Z,100817.06
2022-08-01T23:02:34.929Z,100818.97
2022-08-01T23:05:07.369Z,100822.81
2022-08-01T23:07:42.275Z,100833.75
2022-08-01T23:10:11.779Z,100831.44
2022-08-01T23:12:41.362Z,100829.06
2022-08-01T23:15:12.677Z,100829.28
2022-08-01T23:17:43.506Z,100830.28
2022-08-01T23:20:13.466Z,100827.72
2022-08-01T23:22:44.424Z,100824.16
2022-08-01T23:25:15.883Z,100826.22
2022-08-01T23:27:54.341Z,100823.66
2022-08-01T23:30:35.797Z,100828.34
2022-08-01T23:33:04.945Z,100827.63
2022-08-01T23:35:36.908Z,100827.84
2022-08-01T23:38:10.830Z,100816.72
2022-08-01T23:40:39.865Z,100820.59
2022-08-01T23:43:16.921Z,100818.34
2022-08-01T23:46:03.572Z,100829.38
2022-08-01T23:48:34.943Z,100821.63
2022-08-01T23:51:04.211Z,100822.81
2022-08-01T23:53:35.945Z,100823.97
2022-08-01T23:56:07.218Z,100827.84
2022-08-01T23:58:36.037Z,100820.03
